Time;durP1;ratioP1;P1;durP2;ratioP2;P2;SDS_P1;SDS_P2;PMS_P1;PMS_P2;Temp;Humidity;BMP_temperature;BMP_pressure;BME280_temperature;BME280_humidity;BME280_pressure;Samples;Min_cycle;Max_cycle;Signal;HPM_P1;HPM_P2
2023/04/06 00:00:49;;;;;;;2.60;2.40;;;;;;;;;;5063452;28;20048;-41
2023/04/06 00:03:15;;;;;;;2.60;2.00;;;;;;;;;;5059483;28;20554;-41
2023/04/06 00:05:41;;;;;;;2.72;2.53;;;;;;;;;;5062447;28;20045;-42
2023/04/06 00:08:06;;;;;;;2.83;2.17;;;;;;;;;;5065724;28;20416;-41
2023/04/06 00:10:32;;;;;;;3.75;2.25;;;;;;;;;;5056388;28;20040;-41
2023/04/06 00:12:58;;;;;;;2.28;2.08;;;;;;;;;;5056401;28;20238;-41
2023/04/06 00:15:23;;;;;;;2.63;2.10;;;;;;;;;;5055117;28;20041;-42
2023/04/06 00:17:49;;;;;;;2.60;2.22;;;;;;;;;;5036104;28;20036;-41
2023/04/06 00:20:15;;;;;;;2.85;2.28;;;;;;;;;;5042827;28;20028;-42
2023/04/06 00:22:41;;;;;;;5.22;2.00;;;;;;;;;;5040679;28;20024;-47
2023/04/06 00:25:06;;;;;;;2.40;2.10;;;;;;;;;;5042047;28;20478;-46
2023/04/06 00:27:32;;;;;;;2.42;1.90;;;;;;;;;;5046020;28;20037;-41
2023/04/06 00:29:57;;;;;;;3.03;2.38;;;;;;;;;;5046260;28;20032;-41
2023/04/06 00:32:22;;;;;;;2.30;1.92;;;;;;;;;;5060571;28;20037;-43
2023/04/06 00:34:48;;;;;;;2.90;2.13;;;;;;;;;;5060003;28;20032;-40
2023/04/06 00:37:13;;;;;;;3.00;2.20;;;;;;;;;;5061885;28;20052;-43
2023/04/06 00:39:39;;;;;;;2.28;2.08;;;;;;;;;;5058127;28;20377;-42
2023/04/06 00:42:14;;;;;;;2.42;2.22;;;;;;;;;;5058659;28;20055;-44
2023/04/06 00:44:43;;;;;;;2.30;2.10;;;;;;;;;;5059686;28;20025;-41
2023/04/06 00:47:09;;;;;;;2.50;2.30;;;;;;;;;;5043419;28;20497;-41
2023/04/06 00:49:34;;;;;;;2.10;1.98;;;;;;;;;;5037219;28;20044;-42
2023/04/06 00:52:01;;;;;;;2.75;2.00;;;;;;;;;;5045132;28;20033;-41
2023/04/06 00:54:30;;;;;;;2.20;1.88;;;;;;;;;;5043944;28;20025;-42
2023/04/06 00:56:55;;;;;;;4.78;2.47;;;;;;;;;;5046047;28;20052;-41
2023/04/06 00:59:21;;;;;;;2.55;2.35;;;;;;;;;;5038415;28;20470;-40
2023/04/06 01:01:47;;;;;;;2.85;2.28;;;;;;;;;;5041485;28;23211;-41
2023/04/06 01:04:12;;;;;;;2.22;2.08;;;;;;;;;;5036447;28;20029;-42
2023/04/06 01:06:38;;;;;;;2.00;1.88;;;;;;;;;;5039665;28;20040;-41
2023/04/06 01:09:03;;;;;;;2.13;1.58;;;;;;;;;;5046262;28;20024;-41
2023/04/06 01:11:29;;;;;;;2.30;2.10;;;;;;;;;;5043234;28;20025;-42
2023/04/06 01:13:55;;;;;;;3.35;2.55;;;;;;;;;;5044200;28;20059;-43
2023/04/06 01:16:20;;;;;;;2.17;2.05;;;;;;;;;;5041927;28;20132;-45
2023/04/06 01:18:46;;;;;;;5.70;2.33;;;;;;;;;;5045070;28;20160;-43
2023/04/06 01:21:15;;;;;;;2.35;1.90;;;;;;;;;;5044828;28;20083;-41
2023/04/06 01:23:44;;;;;;;2.45;2.22;;;;;;;;;;5045850;28;20104;-41
2023/04/06 01:26:09;;;;;;;2.20;2.00;;;;;;;;;;5054440;28;20033;-43
2023/04/06 01:28:37;;;;;;;2.40;1.83;;;;;;;;;;5060859;28;20121;-41
2023/04/06 01:31:02;;;;;;;2.10;1.90;;;;;;;;;;5046415;28;20128;-48
2023/04/06 01:33:28;;;;;;;2.20;2.00;;;;;;;;;;5036318;28;20103;-44
2023/04/06 01:35:53;;;;;;;5.00;1.90;;;;;;;;;;5043540;28;20045;-40
2023/04/06 01:38:18;;;;;;;4.28;2.20;;;;;;;;;;5042406;28;20124;-40
2023/04/06 01:40:44;;;;;;;2.22;2.03;;;;;;;;;;5041763;28;20048;-41
2023/04/06 01:43:10;;;;;;;2.90;1.77;;;;;;;;;;5041487;28;20026;-40
2023/04/06 01:45:35;;;;;;;3.38;1.92;;;;;;;;;;5043128;28;20040;-41
2023/04/06 01:48:00;;;;;;;2.05;1.80;;;;;;;;;;5046966;28;20029;-42
2023/04/06 01:50:26;;;;;;;2.30;2.00;;;;;;;;;;5045221;28;20045;-45
2023/04/06 01:52:51;;;;;;;2.95;1.90;;;;;;;;;;5058815;28;20067;-42
2023/04/06 01:55:17;;;;;;;2.10;2.00;;;;;;;;;;5054771;28;20037;-43
2023/04/06 01:57:42;;;;;;;2.55;1.80;;;;;;;;;;5040311;28;20049;-42
2023/04/06 02:00:08;;;;;;;5.30;2.00;;;;;;;;;;5044211;28;20477;-41
2023/04/06 02:02:34;;;;;;;1.75;1.58;;;;;;;;;;5040744;28;20041;-42
2023/04/06 02:04:59;;;;;;;2.08;1.67;;;;;;;;;;5036235;28;20888;-40
2023/04/06 02:07:24;;;;;;;2.72;1.70;;;;;;;;;;5041975;28;20047;-47
2023/04/06 02:09:54;;;;;;;2.40;2.17;;;;;;;;;;5044569;28;20501;-41
2023/04/06 02:12:20;;;;;;;3.70;1.92;;;;;;;;;;5045088;28;20033;-46
2023/04/06 02:14:45;;;;;;;2.45;1.63;;;;;;;;;;5045675;28;20045;-40
2023/04/06 02:17:10;;;;;;;3.75;1.90;;;;;;;;;;5042504;28;20131;-42
2023/04/06 02:19:36;;;;;;;1.90;1.80;;;;;;;;;;5042918;28;20013;-41
2023/04/06 02:22:01;;;;;;;3.58;1.90;;;;;;;;;;5038492;28;20041;-44
2023/04/06 02:24:26;;;;;;;3.67;1.70;;;;;;;;;;5039165;28;20033;-41
2023/04/06 02:26:52;;;;;;;1.75;1.65;;;;;;;;;;5042771;28;20134;-41
2023/04/06 02:29:17;;;;;;;2.53;1.77;;;;;;;;;;5046811;28;20103;-44
2023/04/06 02:31:43;;;;;;;2.05;1.80;;;;;;;;;;5054052;28;20040;-41
2023/04/06 02:34:10;;;;;;;2.03;1.50;;;;;;;;;;5060731;28;20108;-44
2023/04/06 02:36:36;;;;;;;2.65;1.60;;;;;;;;;;5053111;28;20053;-42
2023/04/06 02:39:01;;;;;;;3.40;2.17;;;;;;;;;;5047419;28;20079;-41
2023/04/06 02:41:27;;;;;;;2.00;1.85;;;;;;;;;;5039911;28;20118;-41
2023/04/06 02:43:52;;;;;;;2.50;2.17;;;;;;;;;;5041934;28;20886;-40
2023/04/06 02:46:18;;;;;;;2.33;2.13;;;;;;;;;;5043163;28;20061;-50
2023/04/06 02:48:43;;;;;;;1.63;1.52;;;;;;;;;;5044366;28;20059;-41
2023/04/06 02:51:08;;;;;;;3.42;2.17;;;;;;;;;;5042140;28;20037;-47
2023/04/06 02:53:34;;;;;;;3.42;2.45;;;;;;;;;;5045796;28;20091;-40
2023/04/06 02:55:59;;;;;;;1.90;1.73;;;;;;;;;;5042225;28;20499;-40
2023/04/06 02:58:25;;;;;;;2.20;1.85;;;;;;;;;;5045778;28;20036;-40
2023/04/06 03:00:50;;;;;;;3.22;1.92;;;;;;;;;;5044984;28;20045;-43
2023/04/06 03:03:15;;;;;;;2.20;1.88;;;;;;;;;;5042795;28;20354;-41
2023/04/06 03:05:41;;;;;;;2.72;2.40;;;;;;;;;;5043029;28;20035;-40
2023/04/06 03:08:06;;;;;;;2.47;1.90;;;;;;;;;;5042437;28;20576;-41
2023/04/06 03:10:32;;;;;;;2.03;1.83;;;;;;;;;;5042997;28;20053;-42
2023/04/06 03:12:57;;;;;;;2.83;2.30;;;;;;;;;;5046470;28;20033;-41
2023/04/06 03:15:22;;;;;;;3.72;2.13;;;;;;;;;;5040361;28;20063;-42
2023/04/06 03:17:48;;;;;;;4.70;2.22;;;;;;;;;;5045962;28;20067;-51
2023/04/06 03:20:13;;;;;;;2.20;2.00;;;;;;;;;;5040305;28;20128;-41
2023/04/06 03:22:39;;;;;;;4.10;2.30;;;;;;;;;;5047994;28;20037;-41
2023/04/06 03:25:04;;;;;;;3.25;2.55;;;;;;;;;;5047642;28;20025;-43
2023/04/06 03:27:30;;;;;;;2.47;2.25;;;;;;;;;;5045764;28;20021;-41
2023/04/06 03:29:55;;;;;;;3.13;2.00;;;;;;;;;;5044681;28;20029;-43
2023/04/06 03:32:21;;;;;;;3.70;2.25;;;;;;;;;;5038185;28;20034;-44
2023/04/06 03:34:46;;;;;;;2.65;2.10;;;;;;;;;;5042134;28;20056;-40
2023/04/06 03:37:11;;;;;;;4.88;2.50;;;;;;;;;;5043913;28;20037;-44
2023/04/06 03:39:37;;;;;;;2.90;2.20;;;;;;;;;;5041989;28;20080;-41
2023/04/06 03:42:02;;;;;;;2.70;2.50;;;;;;;;;;5045393;28;20056;-41
2023/04/06 03:44:27;;;;;;;2.60;2.40;;;;;;;;;;5040450;28;20858;-42
2023/04/06 03:46:53;;;;;;;9.13;2.40;;;;;;;;;;5039834;28;20041;-40
2023/04/06 03:49:18;;;;;;;3.20;2.72;;;;;;;;;;5042355;28;20045;-41
2023/04/06 03:51:44;;;;;;;3.63;2.60;;;;;;;;;;5043117;28;20029;-41
2023/04/06 03:54:09;;;;;;;5.55;2.88;;;;;;;;;;5044130;28;20120;-47
2023/04/06 03:56:34;;;;;;;3.78;2.70;;;;;;;;;;5053855;28;20143;-46
2023/04/06 03:59:01;;;;;;;2.78;2.58;;;;;;;;;;5060944;28;20040;-49
2023/04/06 04:01:27;;;;;;;2.58;2.10;;;;;;;;;;5050936;28;20068;-43
2023/04/06 04:03:53;;;;;;;3.83;2.20;;;;;;;;;;5044752;28;20450;-47
2023/04/06 04:06:18;;;;;;;3.42;2.08;;;;;;;;;;5046865;28;20063;-43
2023/04/06 04:08:44;;;;;;;3.53;1.80;;;;;;;;;;5047515;28;20474;-44
2023/04/06 04:11:09;;;;;;;4.50;2.13;;;;;;;;;;5047368;28;20036;-41
2023/04/06 04:13:34;;;;;;;6.03;1.92;;;;;;;;;;5046122;28;20117;-40
2023/04/06 04:16:00;;;;;;;6.43;2.35;;;;;;;;;;5047189;28;20037;-42
2023/04/06 04:18:25;;;;;;;4.32;2.30;;;;;;;;;;5042221;28;21761;-42
2023/04/06 04:20:51;;;;;;;2.95;1.70;;;;;;;;;;5046215;28;20044;-41
2023/04/06 04:23:16;;;;;;;3.55;1.88;;;;;;;;;;5046974;28;20047;-40
2023/04/06 04:25:43;;;;;;;3.17;1.75;;;;;;;;;;5040479;28;20037;-40
2023/04/06 04:28:08;;;;;;;4.82;2.60;;;;;;;;;;5045574;28;20029;-40
2023/04/06 04:30:34;;;;;;;5.70;3.20;;;;;;;;;;5050073;28;20671;-40
2023/04/06 04:33:00;;;;;;;8.85;3.70;;;;;;;;;;5059791;28;20035;-40
2023/04/06 04:35:26;;;;;;;4.28;2.83;;;;;;;;;;5063306;28;20032;-41
2023/04/06 04:37:52;;;;;;;2.30;2.10;;;;;;;;;;5061307;28;20060;-41
2023/04/06 04:40:17;;;;;;;4.80;2.53;;;;;;;;;;5060041;28;20106;-41
2023/04/06 04:42:43;;;;;;;2.97;2.05;;;;;;;;;;5057547;28;20120;-40
2023/04/06 04:45:08;;;;;;;2.72;2.00;;;;;;;;;;5059710;28;20435;-41
2023/04/06 04:47:34;;;;;;;5.32;1.90;;;;;;;;;;5054326;28;20029;-40
2023/04/06 04:49:59;;;;;;;4.18;2.40;;;;;;;;;;5056578;28;20678;-43
2023/04/06 04:52:25;;;;;;;7.80;2.25;;;;;;;;;;5056223;28;20053;-41
2023/04/06 04:54:50;;;;;;;2.90;2.17;;;;;;;;;;5057822;28;20172;-42
2023/04/06 04:57:16;;;;;;;5.68;2.17;;;;;;;;;;5055954;28;20032;-44
2023/04/06 04:59:43;;;;;;;14.20;2.47;;;;;;;;;;5055780;28;20036;-40
2023/04/06 05:02:08;;;;;;;6.55;2.40;;;;;;;;;;5060881;28;20041;-42
2023/04/06 05:04:33;;;;;;;6.95;2.15;;;;;;;;;;5063693;28;20048;-40
2023/04/06 05:07:09;;;;;;;3.35;2.20;;;;;;;;;;5062948;28;20028;-41
2023/04/06 05:09:35;;;;;;;3.67;2.30;;;;;;;;;;5057596;28;20113;-41
2023/04/06 05:12:00;;;;;;;2.83;2.35;;;;;;;;;;5044698;28;20075;-43
2023/04/06 05:14:27;;;;;;;3.78;2.08;;;;;;;;;;5039171;28;21032;-40
2023/04/06 05:16:53;;;;;;;9.60;2.70;;;;;;;;;;5041724;28;20053;-42
2023/04/06 05:19:18;;;;;;;8.45;2.10;;;;;;;;;;5042047;28;20036;-41
2023/04/06 05:21:44;;;;;;;5.57;2.33;;;;;;;;;;5040230;28;20030;-42
2023/04/06 05:24:09;;;;;;;7.20;3.00;;;;;;;;;;5039403;28;20025;-45
2023/04/06 05:26:35;;;;;;;4.90;2.67;;;;;;;;;;5037182;28;20394;-41
2023/04/06 05:29:00;;;;;;;5.25;3.00;;;;;;;;;;5042937;28;20029;-40
2023/04/06 05:31:26;;;;;;;5.45;2.90;;;;;;;;;;5039179;28;20040;-41
2023/04/06 05:33:51;;;;;;;5.93;2.80;;;;;;;;;;5042174;28;20086;-40
2023/04/06 05:36:17;;;;;;;3.97;2.55;;;;;;;;;;5038577;28;20490;-41
2023/04/06 05:38:42;;;;;;;7.18;4.35;;;;;;;;;;5039904;28;20124;-45
2023/04/06 05:41:08;;;;;;;3.42;1.98;;;;;;;;;;5042038;28;20044;-41
2023/04/06 05:43:33;;;;;;;2.72;2.30;;;;;;;;;;5060675;28;20028;-40
2023/04/06 05:45:59;;;;;;;5.75;2.50;;;;;;;;;;5049156;28;20041;-41
2023/04/06 05:48:24;;;;;;;4.05;2.17;;;;;;;;;;5041438;28;20029;-40
2023/04/06 05:50:50;;;;;;;6.68;2.70;;;;;;;;;;5033513;28;20041;-40
2023/04/06 05:53:16;;;;;;;7.72;2.78;;;;;;;;;;5040448;28;20025;-43
2023/04/06 05:55:41;;;;;;;4.38;2.75;;;;;;;;;;5037257;28;20045;-41
2023/04/06 05:58:07;;;;;;;3.35;2.55;;;;;;;;;;5041016;28;20053;-39
2023/04/06 06:00:33;;;;;;;7.75;2.70;;;;;;;;;;5036851;28;20037;-41
2023/04/06 06:02:58;;;;;;;7.53;3.00;;;;;;;;;;5040587;28;20036;-40
2023/04/06 06:05:24;;;;;;;3.72;2.53;;;;;;;;;;5032105;28;20053;-40
2023/04/06 06:07:49;;;;;;;3.38;2.90;;;;;;;;;;5044201;28;20398;-40
2023/04/06 06:10:15;;;;;;;9.55;3.22;;;;;;;;;;5038244;28;20552;-40
2023/04/06 06:12:40;;;;;;;3.63;2.38;;;;;;;;;;5039004;28;20021;-40
2023/04/06 06:15:06;;;;;;;7.07;2.88;;;;;;;;;;5041333;28;20044;-39
2023/04/06 06:17:31;;;;;;;6.93;2.65;;;;;;;;;;5044502;28;20389;-40
2023/04/06 06:19:57;;;;;;;4.55;2.92;;;;;;;;;;5043928;28;20037;-40
2023/04/06 06:22:22;;;;;;;4.22;2.65;;;;;;;;;;5046336;28;20357;-40
2023/04/06 06:24:49;;;;;;;12.82;2.55;;;;;;;;;;5047175;28;20036;-41
2023/04/06 06:27:14;;;;;;;3.38;2.55;;;;;;;;;;5038164;28;20041;-41
2023/04/06 06:29:40;;;;;;;6.82;2.85;;;;;;;;;;5041944;28;20485;-40
2023/04/06 06:32:05;;;;;;;2.97;2.65;;;;;;;;;;5042086;28;20067;-42
2023/04/06 06:34:31;;;;;;;6.57;2.85;;;;;;;;;;5046345;28;20037;-40
2023/04/06 06:36:56;;;;;;;7.45;2.85;;;;;;;;;;5046676;28;20052;-40
2023/04/06 06:39:21;;;;;;;5.25;2.78;;;;;;;;;;5046141;28;20032;-40
2023/04/06 06:41:47;;;;;;;9.60;3.20;;;;;;;;;;5043909;28;20575;-41
2023/04/06 06:44:12;;;;;;;4.30;2.60;;;;;;;;;;5042256;28;20032;-40
2023/04/06 06:46:38;;;;;;;8.25;3.55;;;;;;;;;;5048823;28;20033;-40
2023/04/06 06:49:03;;;;;;;10.48;3.15;;;;;;;;;;5044651;28;20144;-40
2023/04/06 06:51:29;;;;;;;8.15;5.63;;;;;;;;;;5041729;28;20037;-41
2023/04/06 06:53:54;;;;;;;11.02;4.95;;;;;;;;;;5038402;28;20079;-41
2023/04/06 06:56:20;;;;;;;13.32;5.00;;;;;;;;;;5052259;28;20047;-40
2023/04/06 06:58:46;;;;;;;8.70;4.80;;;;;;;;;;5064450;28;22308;-41
2023/04/06 07:01:11;;;;;;;6.78;4.60;;;;;;;;;;5055555;28;20041;-40
2023/04/06 07:03:36;;;;;;;14.00;4.75;;;;;;;;;;5047686;28;20560;-40
2023/04/06 07:06:02;;;;;;;7.32;4.80;;;;;;;;;;5044973;28;20044;-40
2023/04/06 07:08:27;;;;;;;12.52;5.75;;;;;;;;;;5047341;28;20727;-40
2023/04/06 07:10:53;;;;;;;9.88;5.28;;;;;;;;;;5050115;28;20043;-40
2023/04/06 07:13:23;;;;;;;8.60;3.33;;;;;;;;;;5060562;28;20118;-40
2023/04/06 07:15:49;;;;;;;5.32;3.38;;;;;;;;;;5063414;28;20682;-40
2023/04/06 07:18:17;;;;;;;5.85;4.47;;;;;;;;;;5058538;28;20040;-41
2023/04/06 07:20:42;;;;;;;4.93;3.90;;;;;;;;;;5060357;28;20036;-40
2023/04/06 07:23:08;;;;;;;6.50;3.60;;;;;;;;;;5060997;28;20090;-41
2023/04/06 07:25:33;;;;;;;4.85;3.70;;;;;;;;;;5063319;28;20048;-41
2023/04/06 07:27:59;;;;;;;9.02;3.65;;;;;;;;;;5063990;28;20125;-40
2023/04/06 07:30:28;;;;;;;4.30;3.08;;;;;;;;;;5067020;28;20123;-41
2023/04/06 07:32:55;;;;;;;3.88;2.53;;;;;;;;;;5060368;28;20037;-40
2023/04/06 07:35:21;;;;;;;2.53;2.28;;;;;;;;;;5057587;28;20068;-43
2023/04/06 07:37:46;;;;;;;5.72;2.83;;;;;;;;;;5065077;28;20482;-41
2023/04/06 07:40:12;;;;;;;4.80;2.30;;;;;;;;;;5062807;28;20496;-41
2023/04/06 07:42:37;;;;;;;3.92;2.35;;;;;;;;;;5064659;28;20491;-41
2023/04/06 07:45:03;;;;;;;9.45;2.67;;;;;;;;;;5058346;28;20057;-41
2023/04/06 07:47:29;;;;;;;8.40;2.92;;;;;;;;;;5061678;28;20141;-41
2023/04/06 07:49:55;;;;;;;5.57;3.05;;;;;;;;;;5063427;28;20120;-43
2023/04/06 07:52:21;;;;;;;3.40;3.05;;;;;;;;;;5058657;28;20039;-41
2023/04/06 07:54:49;;;;;;;7.28;5.25;;;;;;;;;;5059952;28;20112;-41
2023/04/06 07:57:14;;;;;;;4.00;3.00;;;;;;;;;;5060834;28;20045;-41
2023/04/06 07:59:40;;;;;;;10.10;5.70;;;;;;;;;;5062103;28;20025;-40
2023/04/06 08:02:06;;;;;;;10.75;5.22;;;;;;;;;;5061954;28;20044;-41
2023/04/06 08:04:31;;;;;;;6.18;2.92;;;;;;;;;;5065811;28;20550;-41
2023/04/06 08:06:56;;;;;;;5.07;3.03;;;;;;;;;;5054485;28;20064;-43
2023/04/06 08:09:22;;;;;;;8.68;3.45;;;;;;;;;;5053316;28;20032;-41
2023/04/06 08:11:48;;;;;;;6.07;2.90;;;;;;;;;;5057481;28;20082;-41
2023/04/06 08:14:15;;;;;;;6.47;2.60;;;;;;;;;;5062592;28;20086;-43
2023/04/06 08:16:40;;;;;;;10.43;2.60;;;;;;;;;;5059627;28;20455;-41
2023/04/06 08:19:09;;;;;;;5.78;2.67;;;;;;;;;;5064178;28;20028;-41
2023/04/06 08:21:37;;;;;;;2.75;2.50;;;;;;;;;;5056711;28;20048;-41
2023/04/06 08:24:03;;;;;;;5.68;2.72;;;;;;;;;;5062513;28;20033;-41
2023/04/06 08:26:28;;;;;;;4.60;2.70;;;;;;;;;;5056118;28;20047;-41
2023/04/06 08:28:53;;;;;;;2.58;2.38;;;;;;;;;;5062660;28;20027;-41
2023/04/06 08:31:19;;;;;;;11.27;2.40;;;;;;;;;;5061949;28;20111;-42
2023/04/06 08:33:44;;;;;;;5.18;2.67;;;;;;;;;;5062413;28;20473;-41
2023/04/06 08:36:12;;;;;;;3.83;2.10;;;;;;;;;;5058590;28;20082;-41
2023/04/06 08:38:38;;;;;;;2.10;1.90;;;;;;;;;;5058877;28;20024;-41
2023/04/06 08:41:10;;;;;;;4.47;1.85;;;;;;;;;;5062048;28;20050;-41
2023/04/06 08:43:46;;;;;;;3.15;2.33;;;;;;;;;;5059669;28;20051;-41
2023/04/06 08:46:12;;;;;;;4.60;2.08;;;;;;;;;;5058286;28;20383;-41
2023/04/06 08:48:39;;;;;;;3.10;2.10;;;;;;;;;;5065528;28;20029;-41
2023/04/06 08:51:05;;;;;;;4.20;1.95;;;;;;;;;;5058782;28;20440;-46
2023/04/06 08:53:31;;;;;;;5.18;1.92;;;;;;;;;;5057235;28;20082;-41
2023/04/06 08:55:58;;;;;;;8.18;2.38;;;;;;;;;;5060672;28;20504;-41
2023/04/06 08:58:25;;;;;;;5.47;1.92;;;;;;;;;;5064799;28;20033;-41
2023/04/06 09:00:51;;;;;;;3.33;1.90;;;;;;;;;;5061466;28;20511;-41
2023/04/06 09:03:17;;;;;;;6.88;2.00;;;;;;;;;;5062823;28;20032;-41
2023/04/06 09:05:43;;;;;;;4.43;1.90;;;;;;;;;;5051920;28;20045;-41
2023/04/06 09:08:09;;;;;;;2.50;2.30;;;;;;;;;;5034884;28;22347;-41
2023/04/06 09:10:34;;;;;;;2.42;2.22;;;;;;;;;;5043794;28;20044;-42
2023/04/06 09:13:05;;;;;;;4.63;1.90;;;;;;;;;;5045076;28;20431;-44
2023/04/06 09:15:30;;;;;;;4.50;2.00;;;;;;;;;;5050904;28;20139;-41
2023/04/06 09:17:55;;;;;;;4.45;1.95;;;;;;;;;;5059605;28;20119;-42
2023/04/06 09:20:31;;;;;;;2.97;1.58;;;;;;;;;;5056374;28;20110;-41
2023/04/06 09:22:56;;;;;;;3.90;2.25;;;;;;;;;;5043593;28;20041;-41
2023/04/06 09:25:23;;;;;;;2.35;2.08;;;;;;;;;;5047057;28;20043;-41
2023/04/06 09:28:02;;;;;;;2.70;1.95;;;;;;;;;;5039955;28;20037;-41
2023/04/06 09:30:28;;;;;;;8.23;3.20;;;;;;;;;;5041235;28;20038;-43
2023/04/06 09:32:55;;;;;;;5.28;3.40;;;;;;;;;;5041136;28;20025;-44
2023/04/06 09:35:22;;;;;;;8.80;2.47;;;;;;;;;;5041499;28;20103;-42
2023/04/06 09:37:50;;;;;;;4.70;2.50;;;;;;;;;;5040257;28;20025;-42
2023/04/06 09:40:17;;;;;;;6.68;2.45;;;;;;;;;;5041873;28;20032;-42
2023/04/06 09:42:48;;;;;;;4.88;2.50;;;;;;;;;;5039991;28;20037;-43
2023/04/06 09:45:14;;;;;;;5.10;2.40;;;;;;;;;;5039422;28;20032;-41
2023/04/06 09:47:43;;;;;;;6.63;2.50;;;;;;;;;;5037883;28;20441;-41
2023/04/06 09:50:10;;;;;;;4.28;2.47;;;;;;;;;;5042027;28;20032;-42
2023/04/06 09:52:49;;;;;;;8.20;2.50;;;;;;;;;;5041551;28;20033;-45
2023/04/06 09:55:25;;;;;;;4.03;2.47;;;;;;;;;;5046619;28;20032;-42
2023/04/06 09:57:52;;;;;;;5.68;2.15;;;;;;;;;;5044406;28;20457;-42
2023/04/06 10:00:21;;;;;;;8.80;2.45;;;;;;;;;;5042616;28;20021;-41
2023/04/06 10:03:18;;;;;;;4.60;2.80;;;;;;;;;;5037848;28;20025;-43
2023/04/06 10:05:50;;;;;;;5.90;2.60;;;;;;;;;;5040974;28;20033;-48
2023/04/06 10:08:16;;;;;;;3.00;2.10;;;;;;;;;;5039882;28;20029;-44
2023/04/06 10:10:42;;;;;;;5.85;2.35;;;;;;;;;;5040513;28;20138;-41
2023/04/06 10:13:10;;;;;;;2.75;2.40;;;;;;;;;;5034002;28;20406;-42
2023/04/06 10:15:38;;;;;;;4.60;2.20;;;;;;;;;;5045456;28;20047;-44
2023/04/06 10:18:03;;;;;;;4.28;2.30;;;;;;;;;;5059271;28;20032;-43
2023/04/06 10:20:50;;;;;;;4.95;3.03;;;;;;;;;;5054627;28;20047;-43
2023/04/06 10:23:24;;;;;;;9.63;4.18;;;;;;;;;;5044092;28;20086;-41
2023/04/06 10:25:54;;;;;;;6.20;2.53;;;;;;;;;;5044593;28;20040;-41
2023/04/06 10:28:19;;;;;;;7.25;3.65;;;;;;;;;;5061342;28;20029;-49
2023/04/06 10:30:45;;;;;;;4.43;2.83;;;;;;;;;;5051976;28;20037;-42
2023/04/06 10:33:19;;;;;;;3.35;2.40;;;;;;;;;;5038903;28;20057;-41
2023/04/06 10:35:45;;;;;;;4.97;2.42;;;;;;;;;;5037778;28;20057;-41
2023/04/06 10:38:13;;;;;;;3.15;2.25;;;;;;;;;;5044440;28;20068;-45
2023/04/06 10:40:40;;;;;;;9.02;3.83;;;;;;;;;;5043400;28;20049;-43
2023/04/06 10:43:22;;;;;;;6.07;2.85;;;;;;;;;;5044609;28;20033;-42
2023/04/06 10:45:59;;;;;;;9.67;2.83;;;;;;;;;;5039572;28;20131;-43
2023/04/06 10:48:25;;;;;;;5.93;2.55;;;;;;;;;;5043216;28;20029;-41
2023/04/06 10:50:52;;;;;;;3.95;3.03;;;;;;;;;;5042520;28;20521;-42
2023/04/06 10:53:36;;;;;;;3.42;2.72;;;;;;;;;;5045791;28;20154;-46
2023/04/06 10:56:02;;;;;;;4.80;2.38;;;;;;;;;;5045899;28;20049;-42
2023/04/06 10:58:29;;;;;;;4.13;2.35;;;;;;;;;;5045859;28;20033;-44
2023/04/06 11:00:59;;;;;;;6.32;2.15;;;;;;;;;;5054218;28;20036;-41
2023/04/06 11:03:25;;;;;;;2.20;2.00;;;;;;;;;;5064582;28;20032;-42
2023/04/06 11:05:51;;;;;;;5.95;2.13;;;;;;;;;;5059584;28;20051;-44
2023/04/06 11:08:33;;;;;;;7.55;2.20;;;;;;;;;;5062873;28;20062;-42
2023/04/06 11:11:15;;;;;;;3.05;2.45;;;;;;;;;;5058220;28;20135;-42
2023/04/06 11:13:41;;;;;;;2.47;2.08;;;;;;;;;;5064705;28;20556;-46
2023/04/06 11:16:15;;;;;;;3.35;2.60;;;;;;;;;;5059587;28;20071;-44
2023/04/06 11:18:58;;;;;;;3.35;2.08;;;;;;;;;;5066063;28;20098;-44
2023/04/06 11:21:43;;;;;;;;;;;;;;;;;;5079793;28;20163;-46
2023/04/06 11:24:09;;;;;;;3.03;2.30;;;;;;;;;;5063950;28;19912;-41
2023/04/06 11:26:45;;;;;;;2.55;2.30;;;;;;;;;;5060008;28;20051;-42
2023/04/06 11:29:16;;;;;;;2.85;2.15;;;;;;;;;;5062641;28;20044;-43
2023/04/06 11:31:52;;;;;;;3.55;2.03;;;;;;;;;;5057304;28;20041;-48
2023/04/06 11:34:22;;;;;;;2.88;2.10;;;;;;;;;;5058518;28;20370;-43
2023/04/06 11:36:49;;;;;;;2.00;1.80;;;;;;;;;;5058524;28;20555;-42
2023/04/06 11:39:20;;;;;;;1.73;1.58;;;;;;;;;;5060806;28;20028;-42
2023/04/06 11:41:54;;;;;;;2.10;1.90;;;;;;;;;;5060209;28;20489;-43
2023/04/06 11:44:33;;;;;;;2.10;1.90;;;;;;;;;;5057028;28;20554;-49
2023/04/06 11:47:00;;;;;;;2.67;2.13;;;;;;;;;;5054442;28;20128;-42
2023/04/06 11:49:30;;;;;;;2.83;2.00;;;;;;;;;;5050005;28;20060;-43
2023/04/06 11:51:57;;;;;;;2.95;1.85;;;;;;;;;;5054170;28;20059;-42
2023/04/06 11:54:38;;;;;;;6.60;1.90;;;;;;;;;;5051526;28;20032;-42
2023/04/06 11:57:04;;;;;;;2.47;1.80;;;;;;;;;;5052166;28;20037;-44
2023/04/06 11:59:33;;;;;;;2.47;1.90;;;;;;;;;;5051841;28;20532;-45
2023/04/06 12:01:58;;;;;;;4.00;2.10;;;;;;;;;;5054838;28;20083;-42
2023/04/06 12:04:24;;;;;;;4.40;2.15;;;;;;;;;;5045334;28;20029;-42
2023/04/06 12:06:50;;;;;;;3.03;1.90;;;;;;;;;;5055055;28;20069;-45
2023/04/06 12:09:19;;;;;;;2.95;1.70;;;;;;;;;;5062294;28;20039;-41
2023/04/06 12:11:44;;;;;;;5.70;2.20;;;;;;;;;;5059908;28;20043;-43
2023/04/06 12:14:10;;;;;;;6.35;2.13;;;;;;;;;;5061011;28;20115;-41
2023/04/06 12:16:36;;;;;;;4.35;2.00;;;;;;;;;;5061516;28;20052;-42
2023/04/06 12:19:01;;;;;;;3.95;2.30;;;;;;;;;;5064154;28;20537;-42
2023/04/06 12:21:28;;;;;;;7.55;2.33;;;;;;;;;;5062897;28;20036;-43
2023/04/06 12:23:54;;;;;;;2.25;1.92;;;;;;;;;;5057381;28;20055;-43
2023/04/06 12:26:20;;;;;;;8.68;2.85;;;;;;;;;;5063847;28;20044;-42
2023/04/06 12:28:46;;;;;;;3.50;2.80;;;;;;;;;;5062496;28;20047;-46
2023/04/06 12:31:18;;;;;;;3.80;2.80;;;;;;;;;;5062255;28;20044;-42
2023/04/06 12:33:47;;;;;;;3.10;2.63;;;;;;;;;;5060574;28;20040;-42
2023/04/06 12:36:13;;;;;;;3.67;2.55;;;;;;;;;;5056221;28;20450;-47
2023/04/06 12:38:40;;;;;;;2.42;2.20;;;;;;;;;;5062373;28;20028;-42
2023/04/06 12:41:06;;;;;;;7.10;2.65;;;;;;;;;;5064836;28;20049;-43
2023/04/06 12:43:31;;;;;;;11.95;2.85;;;;;;;;;;5061390;28;20031;-42
2023/04/06 12:45:57;;;;;;;3.15;2.80;;;;;;;;;;5063767;28;20040;-42
2023/04/06 12:48:22;;;;;;;7.97;2.80;;;;;;;;;;5056916;28;20029;-46
2023/04/06 12:51:14;;;;;;;7.22;3.33;;;;;;;;;;5055516;28;20048;-42
2023/04/06 12:53:40;;;;;;;4.70;2.80;;;;;;;;;;5033300;28;20083;-42
2023/04/06 12:56:13;;;;;;;8.55;3.00;;;;;;;;;;5045702;28;20052;-43
2023/04/06 12:58:40;;;;;;;3.20;2.70;;;;;;;;;;5060478;28;20473;-42
2023/04/06 13:01:06;;;;;;;6.70;2.95;;;;;;;;;;5051856;28;20493;-42
2023/04/06 13:03:32;;;;;;;4.75;2.60;;;;;;;;;;5036604;28;20063;-42
2023/04/06 13:05:59;;;;;;;7.30;3.30;;;;;;;;;;5036326;28;20486;-43
2023/04/06 13:08:25;;;;;;;8.43;3.05;;;;;;;;;;5042154;28;20116;-41
2023/04/06 13:10:52;;;;;;;4.38;2.63;;;;;;;;;;5042861;28;20136;-43
2023/04/06 13:13:26;;;;;;;4.15;2.33;;;;;;;;;;5044292;28;20577;-44
2023/04/06 13:16:03;;;;;;;4.57;2.50;;;;;;;;;;5039138;28;20078;-42
2023/04/06 13:18:32;;;;;;;6.57;2.55;;;;;;;;;;5040677;28;20036;-41
2023/04/06 13:20:59;;;;;;;3.72;2.45;;;;;;;;;;5044515;28;20123;-42
2023/04/06 13:23:25;;;;;;;13.00;2.53;;;;;;;;;;5040279;28;20033;-43
2023/04/06 13:26:03;;;;;;;4.32;3.17;;;;;;;;;;5041733;28;20047;-42
2023/04/06 13:28:29;;;;;;;6.78;2.78;;;;;;;;;;5044426;28;20033;-42
2023/04/06 13:30:55;;;;;;;3.25;2.42;;;;;;;;;;5044715;28;20082;-42
2023/04/06 13:33:21;;;;;;;5.03;2.60;;;;;;;;;;5059011;28;20036;-42
2023/04/06 13:35:47;;;;;;;5.32;2.60;;;;;;;;;;5057385;28;20064;-42
2023/04/06 13:38:13;;;;;;;5.65;2.90;;;;;;;;;;5053090;28;20430;-46
2023/04/06 13:40:40;;;;;;;6.43;2.35;;;;;;;;;;5054414;28;20052;-42
2023/04/06 13:43:05;;;;;;;8.50;2.47;;;;;;;;;;5059235;28;20033;-42
2023/04/06 13:45:31;;;;;;;5.93;2.38;;;;;;;;;;5065243;28;20047;-42
2023/04/06 13:47:56;;;;;;;6.60;2.90;;;;;;;;;;5060018;28;20033;-42
2023/04/06 13:50:22;;;;;;;7.05;2.10;;;;;;;;;;5058139;28;20043;-42
2023/04/06 13:52:48;;;;;;;3.88;2.17;;;;;;;;;;5056821;28;20365;-42
2023/04/06 13:55:14;;;;;;;5.07;2.42;;;;;;;;;;5057694;28;20025;-42
2023/04/06 13:57:40;;;;;;;3.03;2.00;;;;;;;;;;5061105;28;20040;-42
2023/04/06 14:00:06;;;;;;;7.18;2.45;;;;;;;;;;5054445;28;20039;-44
2023/04/06 14:02:32;;;;;;;5.90;2.10;;;;;;;;;;5052363;28;20025;-45
2023/04/06 14:04:57;;;;;;;4.05;2.20;;;;;;;;;;5059174;28;20056;-45
2023/04/06 14:07:23;;;;;;;7.03;2.20;;;;;;;;;;5051142;28;20040;-45
2023/04/06 14:09:48;;;;;;;5.15;2.40;;;;;;;;;;5056677;28;20482;-43
2023/04/06 14:12:13;;;;;;;4.65;2.40;;;;;;;;;;5056507;28;20081;-42
2023/04/06 14:14:39;;;;;;;5.78;2.97;;;;;;;;;;5060167;28;20481;-44
2023/04/06 14:17:04;;;;;;;2.78;2.28;;;;;;;;;;5055114;28;20041;-43
2023/04/06 14:19:30;;;;;;;8.45;2.50;;;;;;;;;;5062737;28;20024;-44
2023/04/06 14:21:56;;;;;;;4.65;2.80;;;;;;;;;;5057358;28;20848;-43
2023/04/06 14:24:21;;;;;;;4.13;2.55;;;;;;;;;;5057354;28;20025;-42
2023/04/06 14:26:47;;;;;;;6.72;2.80;;;;;;;;;;5057617;28;20099;-42
2023/04/06 14:29:12;;;;;;;8.32;3.40;;;;;;;;;;5062446;28;20033;-42
2023/04/06 14:31:38;;;;;;;13.27;2.67;;;;;;;;;;5063655;28;20055;-43
2023/04/06 14:34:03;;;;;;;5.55;2.60;;;;;;;;;;5062051;28;20044;-46
2023/04/06 14:36:37;;;;;;;9.75;2.88;;;;;;;;;;5042423;28;20120;-47
2023/04/06 14:39:04;;;;;;;5.22;2.42;;;;;;;;;;5035790;28;20422;-45
2023/04/06 14:41:30;;;;;;;8.15;2.78;;;;;;;;;;5044207;28;20037;-42